Craig, CO (81626)

11:57 PM MDT on June 02, 2015 (GMT -0600)
Craig | | Change Station
CLOSE
Current Station
Personal Weather Station
Location: Craig, CO
Elevation: 6322 ft
Nearby Weather Stations

Elev 6322 ft 40.47 °N, 107.56 °W | Updated 4 seconds ago

Clear
Clear
48.4 °F
Feels Like 48 °F
N
0.9
Wind Variable Wind from SE
Gusts 3.0 mph

Today
High -- | Low -- °F
--% Chance of Precip.
Yesterday
High -- | Low -- °F
Precip. -- in
5:41 AM 8:35 PM
Full, 100% visible
Pressure 29.85 in
Visibility 10.0 miles
Clouds Clear
Windchill 48 °F
Dew Point 37 °F
Humidity 65%
Rainfall 0.00 in
Snow Depth Not available.
UV 0 out of 12
Pollen 8.30 out of 12
Air Quality Not available.
Flu Activity Sporadic
METAR KCAG 030453Z AUTO 13003KT 10SM CLR 09/03 A3003 RMK AO2 SLP106 T00940033

More Conditions Fewer Conditions

Pressure 29.85 in
Visibility 10.0 miles
Clouds Clear
Windchill 48 °F
Dew Point 37 °F
Humidity 65%
Rainfall 0.00 in
Snow Depth Not available.
UV 0 out of 12
Pollen 8.30 out of 12
Air Quality Not available.
Flu Activity Sporadic
METAR KCAG 030453Z AUTO 13003KT 10SM CLR 09/03 A3003 RMK AO2 SLP106 T00940033

More Conditions Fewer Conditions

10-Day Weather Forecast

×

Almanac

Astronomy

Jun. 02, 2015 Rise Set
Actual Time
Civil Twilight
Nautical Twilight
Astronomical Twilight
Moon
Length of Visible Light
Length of Day
Tomorrow will be .
, % of the Moon is Illuminated

Today's Extremes

State Highs State Lows

Community

WunderPhotos

Upload Photos

1,826,177 photos uploaded!

WunderBlogs® & News

Nearby

Air Quality

  Air Quality AQ Index Pollutant
Not available.

Snow Depth

Station Depth Elevation

Earthquake Activity

City Distance Mag. Time & Date
Minimum magnitude displayed is 2.5.

Coastal Water Temperatures

Place Temperature

Stations

Nearby Weather Stations

Station Location Temp. Windchill Dew Point Humidity Wind Precip. Elev Updated Type